createdAt,value
2016-11-18T00:03:29.169Z,0
2016-11-18T00:08:33.590Z,0
2016-11-18T00:13:38.003Z,0
2016-11-18T00:18:42.093Z,0
2016-11-18T00:23:46.850Z,0
2016-11-18T00:28:51.273Z,0
2016-11-18T00:33:55.701Z,0
2016-11-18T00:38:59.799Z,0
2016-11-18T00:44:03.886Z,0
2016-11-18T00:49:07.975Z,0
2016-11-18T00:54:12.068Z,0
2016-11-18T00:59:16.153Z,0
2016-11-18T01:04:20.585Z,0
2016-11-18T01:09:25.673Z,0
2016-11-18T01:14:29.761Z,0
2016-11-18T01:19:33.851Z,0
2016-11-18T01:24:37.939Z,0
2016-11-18T01:29:42.030Z,0
2016-11-18T01:34:46.125Z,0
2016-11-18T01:39:50.575Z,0
2016-11-18T01:44:55.335Z,0
2016-11-18T01:49:59.426Z,0
2016-11-18T01:55:03.513Z,0
2016-11-18T02:00:08.264Z,0
2016-11-18T02:05:12.350Z,0
2016-11-18T02:10:16.434Z,0
2016-11-18T02:15:20.527Z,0
2016-11-18T02:20:24.952Z,0
2016-11-18T02:25:29.375Z,0
2016-11-18T02:30:33.794Z,0
2016-11-18T02:35:37.883Z,0
2016-11-18T02:40:42.647Z,0
2016-11-18T02:45:47.066Z,0
2016-11-18T02:50:51.149Z,0
2016-11-18T02:55:55.574Z,0
2016-11-18T03:00:59.657Z,0
2016-11-18T03:06:04.079Z,0
2016-11-18T03:11:08.501Z,0
2016-11-18T03:16:12.597Z,0
2016-11-18T03:21:17.019Z,0
2016-11-18T03:26:21.123Z,0
2016-11-18T03:31:25.884Z,0
2016-11-18T03:36:30.310Z,0
2016-11-18T03:41:34.399Z,0
2016-11-18T03:46:38.494Z,0
2016-11-18T03:51:42.579Z,0
2016-11-18T03:56:46.667Z,0
2016-11-18T04:01:50.754Z,0
2016-11-18T04:06:55.174Z,0
2016-11-18T04:11:59.265Z,0
2016-11-18T04:17:03.352Z,0
2016-11-18T04:22:07.441Z,0
2016-11-18T04:27:11.859Z,0
2016-11-18T04:32:16.279Z,0
2016-11-18T04:37:20.699Z,0
2016-11-18T04:42:24.783Z,0
2016-11-18T04:47:29.214Z,0
2016-11-18T04:52:33.302Z,0
2016-11-18T04:57:37.391Z,0
2016-11-18T05:02:41.492Z,0
2016-11-18T05:07:45.592Z,0
2016-11-18T05:12:50.021Z,0
2016-11-18T05:17:54.458Z,0
2016-11-18T05:22:58.544Z,0
2016-11-18T05:28:02.968Z,0
2016-11-18T05:33:07.428Z,0
2016-11-18T05:38:11.513Z,0
2016-11-18T05:43:15.941Z,0
2016-11-18T05:48:20.031Z,0
2016-11-18T05:53:24.126Z,0
2016-11-18T05:58:28.554Z,0
2016-11-18T06:03:32.643Z,0
2016-11-18T06:08:36.732Z,0
2016-11-18T06:13:41.160Z,0
2016-11-18T06:18:45.254Z,0
2016-11-18T06:23:49.676Z,0
2016-11-18T06:28:53.770Z,1
2016-11-18T06:33:57.862Z,1
2016-11-18T06:39:02.285Z,3
2016-11-18T06:44:06.430Z,7
2016-11-18T06:49:11.396Z,13
2016-11-18T06:54:15.488Z,20
2016-11-18T06:59:19.581Z,29
2016-11-18T07:04:23.660Z,50
2016-11-18T07:09:28.100Z,32
2016-11-18T07:14:32.691Z,27
2016-11-18T07:19:36.811Z,33
2016-11-18T07:24:41.241Z,36
2016-11-18T07:29:45.330Z,28
2016-11-18T07:34:49.761Z,35
2016-11-18T07:39:53.852Z,36
2016-11-18T07:44:58.959Z,47
2016-11-18T07:50:03.087Z,81
2016-11-18T07:55:07.500Z,98
2016-11-18T08:00:11.928Z,63
2016-11-18T08:05:16.016Z,44
2016-11-18T08:10:20.444Z,42
2016-11-18T08:15:25.245Z,49
2016-11-18T08:20:29.353Z,30
2016-11-18T08:25:33.784Z,162
2016-11-18T08:30:38.207Z,359
2016-11-18T08:35:42.295Z,312
2016-11-18T08:40:46.726Z,323
2016-11-18T08:45:50.810Z,268
2016-11-18T08:50:55.574Z,404
2016-11-18T08:56:00.343Z,422
2016-11-18T09:01:04.436Z,130
2016-11-18T09:06:08.522Z,217
2016-11-18T09:11:12.614Z,1136
2016-11-18T09:16:16.709Z,591
2016-11-18T09:21:21.135Z,742
2016-11-18T09:26:25.233Z,348
2016-11-18T09:31:29.328Z,833
2016-11-18T09:36:33.755Z,473
2016-11-18T09:41:38.522Z,300
2016-11-18T09:46:42.612Z,392
2016-11-18T09:51:46.705Z,507
2016-11-18T09:56:51.137Z,1332
2016-11-18T10:01:55.238Z,1392
2016-11-18T10:06:59.666Z,1367
2016-11-18T10:12:03.760Z,1338
2016-11-18T10:17:08.201Z,424
2016-11-18T10:22:12.634Z,573
2016-11-18T10:27:16.739Z,636
2016-11-18T10:32:20.835Z,243
2016-11-18T10:37:24.926Z,180
2016-11-18T10:42:29.691Z,159
2016-11-18T10:47:33.783Z,220
2016-11-18T10:52:38.222Z,292
2016-11-18T10:57:42.316Z,424
2016-11-18T11:02:46.737Z,357
2016-11-18T11:07:51.186Z,611
2016-11-18T11:12:55.955Z,888
2016-11-18T11:18:01.069Z,546
2016-11-18T11:23:05.170Z,302
2016-11-18T11:28:09.705Z,421
2016-11-18T11:33:13.792Z,375
2016-11-18T11:38:17.895Z,233
2016-11-18T11:43:21.990Z,224
2016-11-18T11:48:26.428Z,285
2016-11-18T11:53:30.530Z,262
2016-11-18T11:58:35.291Z,292
2016-11-18T12:03:39.716Z,196
2016-11-18T12:08:44.150Z,183
2016-11-18T12:13:48.582Z,232
2016-11-18T12:18:53.360Z,221
2016-11-18T12:23:57.786Z,326
2016-11-18T12:29:01.882Z,320
2016-11-18T12:34:06.307Z,419
2016-11-18T12:39:10.739Z,304
2016-11-18T12:44:15.176Z,313
2016-11-18T12:49:19.275Z,344
2016-11-18T12:54:23.375Z,347
2016-11-18T12:59:27.484Z,250
2016-11-18T13:04:31.925Z,274
2016-11-18T13:09:36.359Z,273
2016-11-18T13:14:40.786Z,275
2016-11-18T13:19:44.883Z,286
2016-11-18T13:24:49.651Z,259
2016-11-18T13:29:53.756Z,208
2016-11-18T13:34:58.189Z,270
2016-11-18T13:40:02.619Z,303
2016-11-18T13:45:06.720Z,253
2016-11-18T13:50:11.153Z,137
2016-11-18T13:55:15.578Z,156
2016-11-18T14:00:19.675Z,136
2016-11-18T14:05:24.317Z,120
2016-11-18T14:10:28.414Z,118
2016-11-18T14:15:32.509Z,133
2016-11-18T14:20:36.603Z,127
2016-11-18T14:25:40.694Z,147
2016-11-18T14:30:44.787Z,143
2016-11-18T14:35:48.883Z,136
2016-11-18T14:40:53.650Z,115
2016-11-18T14:45:57.741Z,110
2016-11-18T14:51:02.175Z,91
2016-11-18T14:56:06.602Z,76
2016-11-18T15:01:11.948Z,66
2016-11-18T15:06:16.362Z,50
2016-11-18T15:11:20.450Z,37
2016-11-18T15:16:24.553Z,25
2016-11-18T15:21:28.993Z,15
2016-11-18T15:26:34.121Z,10
2016-11-18T15:31:38.221Z,5
2016-11-18T15:36:42.377Z,3
2016-11-18T15:41:46.796Z,2
2016-11-18T15:46:50.889Z,1
2016-11-18T15:51:54.989Z,1
2016-11-18T15:56:59.425Z,1
2016-11-18T16:02:03.518Z,0
2016-11-18T16:07:07.691Z,0
2016-11-18T16:12:12.127Z,0
2016-11-18T16:17:16.239Z,0
2016-11-18T16:22:20.669Z,0
2016-11-18T16:27:25.095Z,0
2016-11-18T16:32:29.194Z,0
2016-11-18T16:37:33.275Z,0
2016-11-18T16:42:37.705Z,0
2016-11-18T16:47:42.158Z,0
2016-11-18T16:52:46.342Z,1
2016-11-18T16:57:50.469Z,1
2016-11-18T17:02:54.900Z,1
2016-11-18T17:07:59.202Z,1
2016-11-18T17:13:03.298Z,1
2016-11-18T17:18:07.394Z,1
2016-11-18T17:23:11.487Z,1
2016-11-18T17:28:15.628Z,2
2016-11-18T17:33:20.100Z,1
2016-11-18T17:38:24.726Z,1
2016-11-18T17:43:28.875Z,1
2016-11-18T17:48:32.964Z,1
2016-11-18T17:53:37.056Z,1
2016-11-18T17:58:41.476Z,1
2016-11-18T18:03:45.906Z,1
2016-11-18T18:08:50.119Z,3
2016-11-18T18:13:54.881Z,3
2016-11-18T18:18:58.980Z,1
2016-11-18T18:24:03.078Z,1
2016-11-18T18:29:07.508Z,1
2016-11-18T18:34:11.930Z,1
2016-11-18T18:39:16.025Z,1
2016-11-18T18:44:20.117Z,1
2016-11-18T18:49:24.216Z,1
2016-11-18T18:54:28.642Z,1
2016-11-18T18:59:33.063Z,1
2016-11-18T19:04:37.160Z,1
2016-11-18T19:09:41.256Z,1
2016-11-18T19:14:46.011Z,1
2016-11-18T19:19:50.431Z,1
2016-11-18T19:24:54.522Z,1
2016-11-18T19:29:58.619Z,1
2016-11-18T19:35:03.043Z,1
2016-11-18T19:40:07.146Z,1
2016-11-18T19:45:11.247Z,1
2016-11-18T19:50:16.353Z,1
2016-11-18T19:55:20.445Z,1
2016-11-18T20:00:24.542Z,1
2016-11-18T20:05:28.635Z,1
2016-11-18T20:10:33.404Z,1
2016-11-18T20:15:37.848Z,1
2016-11-18T20:20:42.278Z,1
2016-11-18T20:25:46.719Z,1
2016-11-18T20:30:51.815Z,1
2016-11-18T20:35:55.899Z,1
2016-11-18T20:40:59.999Z,1
2016-11-18T20:46:04.421Z,1
2016-11-18T20:51:08.522Z,1
2016-11-18T20:56:12.954Z,1
2016-11-18T21:01:17.378Z,1
2016-11-18T21:06:21.808Z,1
2016-11-18T21:11:26.238Z,1
2016-11-18T21:16:30.528Z,1
2016-11-18T21:21:34.951Z,1
2016-11-18T21:26:39.045Z,1
2016-11-18T21:31:43.467Z,1
2016-11-18T21:36:47.556Z,1
2016-11-18T21:41:51.656Z,1
2016-11-18T21:46:56.078Z,1
2016-11-18T21:52:00.506Z,1
2016-11-18T21:57:04.605Z,1
2016-11-18T22:02:08.707Z,1
2016-11-18T22:07:13.128Z,0
2016-11-18T22:12:17.576Z,1
2016-11-18T22:17:21.690Z,0
2016-11-18T22:22:25.786Z,0
2016-11-18T22:27:30.211Z,0
2016-11-18T22:32:34.649Z,0
2016-11-18T22:37:38.776Z,0
2016-11-18T22:42:42.859Z,0
2016-11-18T22:47:46.970Z,0
2016-11-18T22:52:51.739Z,0
2016-11-18T22:57:56.167Z,0
2016-11-18T23:03:00.609Z,0
2016-11-18T23:08:05.037Z,0
2016-11-18T23:13:09.801Z,0
2016-11-18T23:18:13.894Z,0
2016-11-18T23:23:17.985Z,0
2016-11-18T23:28:22.077Z,0
2016-11-18T23:33:26.166Z,0
2016-11-18T23:38:30.251Z,0
2016-11-18T23:43:34.336Z,0
2016-11-18T23:48:39.434Z,0
2016-11-18T23:53:43.862Z,0
2016-11-18T23:58:47.957Z,0
